createdAt,value
2022-12-04T00:04:43.193Z,0.4
2022-12-04T00:09:43.566Z,0.4
2022-12-04T00:15:26.273Z,0.4
2022-12-04T00:19:42.943Z,0.8
2022-12-04T00:24:43.304Z,0.8
2022-12-04T00:29:43.623Z,0.9
2022-12-04T00:34:42.897Z,0.9
2022-12-04T00:39:43.324Z,0.8
2022-12-04T00:44:43.002Z,0.8
2022-12-04T00:49:43.320Z,0.6
2022-12-04T00:54:43.603Z,0.4
2022-12-04T00:59:43.619Z,0.4
2022-12-04T01:04:43.366Z,0.4
2022-12-04T01:09:43.675Z,0.4
2022-12-04T01:14:43.053Z,0.4
2022-12-04T01:19:43.399Z,0.4
2022-12-04T01:24:43.587Z,0.4
2022-12-04T01:29:42.934Z,0.4
2022-12-04T01:34:42.711Z,0.4
2022-12-04T01:39:43.142Z,0.4
2022-12-04T01:44:42.817Z,0.4
2022-12-04T01:49:43.080Z,0.4
2022-12-04T01:54:43.587Z,0.4
2022-12-04T01:59:42.889Z,0.4
2022-12-04T02:04:43.353Z,0.4
2022-12-04T02:09:43.747Z,0.4
2022-12-04T02:14:43.399Z,0.4
2022-12-04T02:19:43.647Z,0.4
2022-12-04T02:24:50.368Z,0.4
2022-12-04T02:29:43.397Z,0.4
2022-12-04T02:34:43.707Z,0.4
2022-12-04T02:39:43.266Z,0.4
2022-12-04T02:44:43.002Z,0.4
2022-12-04T02:49:43.514Z,0.4
2022-12-04T02:54:43.001Z,0.4
2022-12-04T09:09:48.698Z,0.4
2022-12-04T09:14:43.302Z,0.9
2022-12-04T09:19:43.824Z,0.9
2022-12-04T09:24:43.347Z,0.9
2022-12-04T09:29:43.987Z,0.9
2022-12-04T09:34:52.710Z,0.5
2022-12-04T09:39:43.177Z,0.5
2022-12-04T09:44:43.488Z,0.5
2022-12-04T09:49:42.943Z,0.9
2022-12-04T09:54:43.357Z,0.9
2022-12-04T09:59:43.916Z,0.9
2022-12-04T10:04:43.855Z,0.7
2022-12-04T10:09:43.479Z,0.7
2022-12-04T10:14:43.859Z,0.9
2022-12-04T10:19:43.168Z,0.9
2022-12-04T10:24:43.909Z,0.9
2022-12-04T10:29:43.905Z,0.9
2022-12-04T10:34:46.252Z,0.9
2022-12-04T10:39:43.415Z,0.9
2022-12-04T10:44:43.235Z,0.9
2022-12-04T10:49:43.695Z,0.9
2022-12-04T10:54:43.218Z,0.8
2022-12-04T10:59:43.457Z,0.8
2022-12-04T11:04:43.709Z,0.9
2022-12-04T11:09:43.371Z,0.9
2022-12-04T11:14:47.631Z,0.9
2022-12-04T11:19:43.235Z,0.9
2022-12-04T11:24:43.508Z,0.9
2022-12-04T11:29:43.770Z,0.8
2022-12-04T11:34:44.081Z,0.9
2022-12-04T11:39:43.598Z,0.9
2022-12-04T11:44:44.048Z,0.9
2022-12-04T11:49:44.243Z,0.9
2022-12-04T11:54:43.564Z,0.9
2022-12-04T11:59:43.903Z,0.4
2022-12-04T12:04:43.188Z,0.4
2022-12-04T12:09:43.561Z,1.1
2022-12-04T12:14:43.811Z,0.9
2022-12-04T12:19:43.163Z,0.9
2022-12-04T12:24:50.031Z,0.9
2022-12-04T12:29:43.729Z,0.9
2022-12-04T12:34:43.177Z,0.9
2022-12-04T12:39:43.413Z,0.9
2022-12-04T12:44:43.668Z,0.9
2022-12-04T12:49:43.897Z,0.9
2022-12-04T12:54:43.351Z,0.9
2022-12-04T12:59:43.999Z,0.8
2022-12-04T13:04:43.334Z,0.9
2022-12-04T13:09:43.570Z,0.9
2022-12-04T13:14:49.429Z,0.9
2022-12-04T13:19:43.709Z,0.9
2022-12-04T13:24:44.094Z,0.9
2022-12-04T13:29:43.416Z,0.9
2022-12-04T13:34:43.689Z,0.9
2022-12-04T13:39:44.075Z,1.3
2022-12-04T13:44:43.527Z,1.2
2022-12-04T13:49:43.973Z,1.2
2022-12-04T13:54:43.270Z,1.2
2022-12-04T13:59:43.570Z,0.9
2022-12-04T14:04:43.801Z,0.9
2022-12-04T14:09:44.204Z,0.9
2022-12-04T14:14:43.545Z,0.9
2022-12-04T14:19:44.042Z,0.9
2022-12-04T14:24:43.290Z,0.9
2022-12-04T14:29:43.582Z,0.9
2022-12-04T14:34:43.933Z,0.9
2022-12-04T14:39:43.260Z,0.9
2022-12-04T14:44:43.694Z,0.9
2022-12-04T14:49:43.618Z,1
2022-12-04T14:54:43.816Z,1.3
2022-12-04T14:59:43.434Z,1.3
2022-12-04T15:04:43.773Z,1.3
2022-12-04T15:09:43.742Z,1
2022-12-04T15:14:43.325Z,1.3
2022-12-04T15:19:43.903Z,1.3
2022-12-04T15:24:43.390Z,1.3
2022-12-04T15:29:43.508Z,1.2
2022-12-04T15:34:43.387Z,1.2
2022-12-04T15:39:43.209Z,0.9
2022-12-04T15:44:43.533Z,0.9
2022-12-04T15:49:44.296Z,1
2022-12-04T15:54:44.078Z,1.3
2022-12-04T15:59:43.762Z,1.3
2022-12-04T16:04:45.875Z,1.3
2022-12-04T16:09:43.710Z,1.3
2022-12-04T16:14:43.688Z,1.3
2022-12-04T16:19:44.234Z,1.3
2022-12-04T16:24:44.050Z,1.3
2022-12-04T16:29:43.385Z,1.3
2022-12-04T16:34:43.887Z,1.3
2022-12-04T16:39:44.266Z,1.3
2022-12-04T16:44:43.635Z,1.3
2022-12-04T16:49:44.017Z,1
2022-12-04T16:54:43.366Z,0.9
2022-12-04T16:59:43.858Z,0.9
2022-12-04T17:04:43.331Z,0.9
2022-12-04T17:09:43.520Z,1.3
2022-12-04T17:14:43.963Z,1.2
2022-12-04T17:19:43.466Z,1.2
2022-12-04T17:24:57.246Z,1.2
2022-12-04T17:29:43.764Z,1.1
2022-12-04T17:34:44.365Z,1.4
2022-12-04T17:39:43.686Z,1.4
2022-12-04T17:44:44.444Z,1.4
2022-12-04T17:49:43.821Z,0.9
2022-12-04T17:54:44.132Z,0.9
2022-12-04T17:59:43.671Z,0.9
2022-12-04T18:04:44.040Z,0.9
2022-12-04T18:09:43.518Z,0.9
2022-12-04T18:14:43.801Z,0.9
2022-12-04T18:19:44.176Z,1.1
2022-12-04T18:24:43.589Z,1.3
2022-12-04T18:29:44.002Z,1.3
2022-12-04T18:34:43.607Z,1.3
2022-12-04T18:39:43.997Z,1
2022-12-04T18:44:43.429Z,1
2022-12-04T18:49:43.672Z,0.8
2022-12-04T18:54:43.416Z,0.5
2022-12-04T18:59:43.691Z,0.5
2022-12-04T19:04:44.058Z,0.9
2022-12-04T19:10:21.651Z,0.9
2022-12-04T19:14:43.866Z,0.9
2022-12-04T19:19:43.539Z,0.9
2022-12-04T19:24:43.757Z,0.9
2022-12-04T19:29:43.991Z,0.9
2022-12-04T19:34:44.270Z,0.9
2022-12-04T19:39:43.643Z,0.9
2022-12-04T19:44:49.884Z,0.9
2022-12-04T19:49:43.548Z,0.9
2022-12-04T19:54:43.861Z,0.9
2022-12-04T19:59:47.133Z,0.9
2022-12-04T20:04:43.450Z,0.9
2022-12-04T20:09:52.811Z,0.9
2022-12-04T20:14:44.208Z,1
2022-12-04T20:19:43.535Z,1
2022-12-04T20:24:43.756Z,1
2022-12-04T20:29:43.884Z,0.7
2022-12-04T20:34:44.315Z,0.9
2022-12-04T20:39:43.674Z,0.9
2022-12-04T20:44:43.946Z,0.9
2022-12-04T20:49:44.340Z,0.8
2022-12-04T20:54:43.924Z,0.9
2022-12-04T20:59:44.293Z,0.9
2022-12-04T21:04:43.443Z,0.9
2022-12-04T21:09:43.649Z,0.9
2022-12-04T21:14:43.966Z,0.9
2022-12-04T21:19:43.523Z,0.9
2022-12-04T21:24:44.243Z,0.9
2022-12-04T21:29:43.688Z,0.9
2022-12-04T21:34:44.021Z,0.9
2022-12-04T21:39:43.861Z,0.9
2022-12-04T21:44:44.146Z,0.9
2022-12-04T21:49:44.389Z,1.1
2022-12-04T21:54:43.876Z,0.9
2022-12-04T21:59:44.250Z,0.9
2022-12-04T22:04:43.981Z,0.9
2022-12-04T22:09:43.565Z,0.9
2022-12-04T22:14:44.026Z,0.9
2022-12-04T22:19:43.415Z,0.9
2022-12-04T22:24:43.649Z,0.9
2022-12-04T22:29:51.642Z,0.9
2022-12-04T22:34:44.160Z,1.2
2022-12-04T22:39:43.590Z,1.2
2022-12-04T22:44:43.890Z,1.2
2022-12-04T22:49:44.212Z,0.5
2022-12-04T22:54:43.553Z,0.9
2022-12-04T22:59:43.899Z,0.9
2022-12-04T23:04:44.113Z,1.2
2022-12-04T23:09:44.465Z,1.2
2022-12-04T23:14:43.852Z,0.9
2022-12-04T23:19:44.371Z,0.9
2022-12-04T23:24:43.821Z,0.9
2022-12-04T23:30:06.144Z,0.9
2022-12-04T23:34:43.785Z,0.9
2022-12-04T23:39:44.083Z,0.9
2022-12-04T23:44:43.529Z,0.9
2022-12-04T23:49:44.036Z,0.9
2022-12-04T23:54:44.448Z,0.7
2022-12-04T23:59:44.268Z,0.7
